sensor_id;sensor_type;location;lat;lon;timestamp;temperature;humidity
35129;DHT22;21301;43.626;10.580;2023-02-22T00:00:19;11.90;99.90
35129;DHT22;21301;43.626;10.580;2023-02-22T00:02:55;11.80;99.90
35129;DHT22;21301;43.626;10.580;2023-02-22T00:05:26;11.70;99.90
35129;DHT22;21301;43.626;10.580;2023-02-22T00:07:52;11.80;99.90
35129;DHT22;21301;43.626;10.580;2023-02-22T00:10:22;11.70;99.90
35129;DHT22;21301;43.626;10.580;2023-02-22T00:12:50;11.80;99.90
35129;DHT22;21301;43.626;10.580;2023-02-22T00:15:20;11.80;99.90
35129;DHT22;21301;43.626;10.580;2023-02-22T00:17:46;11.80;99.90
35129;DHT22;21301;43.626;10.580;2023-02-22T00:20:13;11.90;99.90
35129;DHT22;21301;43.626;10.580;2023-02-22T00:22:41;11.90;99.90
35129;DHT22;21301;43.626;10.580;2023-02-22T00:25:07;11.90;99.90
35129;DHT22;21301;43.626;10.580;2023-02-22T00:27:33;11.90;99.90
35129;DHT22;21301;43.626;10.580;2023-02-22T00:29:59;12.00;99.90
35129;DHT22;21301;43.626;10.580;2023-02-22T00:32:25;11.90;99.90
35129;DHT22;21301;43.626;10.580;2023-02-22T00:34:52;12.00;99.90
35129;DHT22;21301;43.626;10.580;2023-02-22T00:37:19;11.90;99.90
35129;DHT22;21301;43.626;10.580;2023-02-22T00:39:47;11.90;99.90
35129;DHT22;21301;43.626;10.580;2023-02-22T00:42:15;12.00;99.90
35129;DHT22;21301;43.626;10.580;2023-02-22T00:44:43;12.10;99.90
35129;DHT22;21301;43.626;10.580;2023-02-22T00:47:11;12.10;99.90
35129;DHT22;21301;43.626;10.580;2023-02-22T00:49:37;12.20;99.90
35129;DHT22;21301;43.626;10.580;2023-02-22T00:52:04;12.20;99.90
35129;DHT22;21301;43.626;10.580;2023-02-22T00:54:30;12.20;99.90
35129;DHT22;21301;43.626;10.580;2023-02-22T00:56:57;12.10;99.90
35129;DHT22;21301;43.626;10.580;2023-02-22T00:59:23;12.10;99.90
35129;DHT22;21301;43.626;10.580;2023-02-22T01:01:49;12.00;99.90
35129;DHT22;21301;43.626;10.580;2023-02-22T01:04:15;11.90;99.90
35129;DHT22;21301;43.626;10.580;2023-02-22T01:06:42;11.90;99.90
35129;DHT22;21301;43.626;10.580;2023-02-22T01:09:08;11.80;99.90
35129;DHT22;21301;43.626;10.580;2023-02-22T01:11:34;11.80;99.90
35129;DHT22;21301;43.626;10.580;2023-02-22T01:14:00;11.70;99.90
35129;DHT22;21301;43.626;10.580;2023-02-22T01:16:26;11.70;99.90
35129;DHT22;21301;43.626;10.580;2023-02-22T01:18:51;11.70;99.90
35129;DHT22;21301;43.626;10.580;2023-02-22T01:21:17;11.70;99.90
35129;DHT22;21301;43.626;10.580;2023-02-22T01:23:44;11.50;99.90
35129;DHT22;21301;43.626;10.580;2023-02-22T01:26:10;11.70;99.90
35129;DHT22;21301;43.626;10.580;2023-02-22T01:28:37;11.60;99.90
35129;DHT22;21301;43.626;10.580;2023-02-22T01:31:03;11.60;99.90
35129;DHT22;21301;43.626;10.580;2023-02-22T01:33:29;11.50;99.90
35129;DHT22;21301;43.626;10.580;2023-02-22T01:35:55;11.50;99.90
35129;DHT22;21301;43.626;10.580;2023-02-22T01:38:21;11.50;99.90
35129;DHT22;21301;43.626;10.580;2023-02-22T01:40:49;11.40;99.90
35129;DHT22;21301;43.626;10.580;2023-02-22T01:46:04;11.50;99.90
35129;DHT22;21301;43.626;10.580;2023-02-22T01:48:45;11.50;99.90
35129;DHT22;21301;43.626;10.580;2023-02-22T01:51:23;11.50;99.90
35129;DHT22;21301;43.626;10.580;2023-02-22T01:54:00;11.40;99.90
35129;DHT22;21301;43.626;10.580;2023-02-22T01:56:30;11.40;99.90
35129;DHT22;21301;43.626;10.580;2023-02-22T01:59:07;11.40;99.90
35129;DHT22;21301;43.626;10.580;2023-02-22T02:01:36;11.40;99.90
35129;DHT22;21301;43.626;10.580;2023-02-22T02:04:06;11.40;99.90
35129;DHT22;21301;43.626;10.580;2023-02-22T02:06:33;11.40;99.90
35129;DHT22;21301;43.626;10.580;2023-02-22T02:09:11;11.40;99.90
35129;DHT22;21301;43.626;10.580;2023-02-22T02:11:39;11.40;99.90
35129;DHT22;21301;43.626;10.580;2023-02-22T02:14:07;11.40;99.90
35129;DHT22;21301;43.626;10.580;2023-02-22T02:16:45;11.40;99.90
35129;DHT22;21301;43.626;10.580;2023-02-22T02:19:23;11.40;99.90
35129;DHT22;21301;43.626;10.580;2023-02-22T02:30:46;11.30;99.90
35129;DHT22;21301;43.626;10.580;2023-02-22T02:37:29;11.30;99.90
35129;DHT22;21301;43.626;10.580;2023-02-22T02:40:18;11.20;99.90
35129;DHT22;21301;43.626;10.580;2023-02-22T02:43:02;11.30;99.90
35129;DHT22;21301;43.626;10.580;2023-02-22T02:45:39;11.30;99.90
35129;DHT22;21301;43.626;10.580;2023-02-22T02:48:11;11.30;99.90
35129;DHT22;21301;43.626;10.580;2023-02-22T02:50:44;11.20;99.90
35129;DHT22;21301;43.626;10.580;2023-02-22T02:53:12;11.20;99.90
35129;DHT22;21301;43.626;10.580;2023-02-22T02:55:42;11.20;99.90
35129;DHT22;21301;43.626;10.580;2023-02-22T02:58:10;11.10;99.90
35129;DHT22;21301;43.626;10.580;2023-02-22T03:00:41;11.10;99.90
35129;DHT22;21301;43.626;10.580;2023-02-22T03:09:12;11.20;99.90
35129;DHT22;21301;43.626;10.580;2023-02-22T03:17:44;11.30;99.90
35129;DHT22;21301;43.626;10.580;2023-02-22T03:22:51;11.30;99.90
35129;DHT22;21301;43.626;10.580;2023-02-22T03:25:27;11.30;99.90
35129;DHT22;21301;43.626;10.580;2023-02-22T03:28:00;11.30;99.90
35129;DHT22;21301;43.626;10.580;2023-02-22T03:30:35;11.40;99.90
35129;DHT22;21301;43.626;10.580;2023-02-22T03:33:36;11.40;99.90
35129;DHT22;21301;43.626;10.580;2023-02-22T03:36:47;11.40;99.90
35129;DHT22;21301;43.626;10.580;2023-02-22T03:39:15;11.40;99.90
35129;DHT22;21301;43.626;10.580;2023-02-22T03:41:47;11.40;99.90
35129;DHT22;21301;43.626;10.580;2023-02-22T03:44:22;11.30;99.90
35129;DHT22;21301;43.626;10.580;2023-02-22T03:46:51;11.20;99.90
35129;DHT22;21301;43.626;10.580;2023-02-22T03:49:43;11.20;99.90
35129;DHT22;21301;43.626;10.580;2023-02-22T03:52:12;11.30;99.90
35129;DHT22;21301;43.626;10.580;2023-02-22T03:54:39;11.30;99.90
35129;DHT22;21301;43.626;10.580;2023-02-22T03:57:16;11.40;99.90
35129;DHT22;21301;43.626;10.580;2023-02-22T03:59:44;11.30;99.90
35129;DHT22;21301;43.626;10.580;2023-02-22T04:02:11;11.30;99.90
35129;DHT22;21301;43.626;10.580;2023-02-22T04:04:37;11.40;99.90
35129;DHT22;21301;43.626;10.580;2023-02-22T04:07:02;11.30;99.90
35129;DHT22;21301;43.626;10.580;2023-02-22T04:09:29;11.30;99.90
35129;DHT22;21301;43.626;10.580;2023-02-22T04:11:55;11.20;99.90
35129;DHT22;21301;43.626;10.580;2023-02-22T04:14:21;11.20;99.90
35129;DHT22;21301;43.626;10.580;2023-02-22T04:16:46;11.30;99.90
35129;DHT22;21301;43.626;10.580;2023-02-22T04:19:12;11.20;99.90
35129;DHT22;21301;43.626;10.580;2023-02-22T04:21:38;11.20;99.90
35129;DHT22;21301;43.626;10.580;2023-02-22T04:24:08;11.20;99.90
35129;DHT22;21301;43.626;10.580;2023-02-22T04:26:34;11.20;99.90
35129;DHT22;21301;43.626;10.580;2023-02-22T04:29:02;11.10;99.90
35129;DHT22;21301;43.626;10.580;2023-02-22T04:31:35;11.10;99.90
35129;DHT22;21301;43.626;10.580;2023-02-22T04:34:01;11.10;99.90
35129;DHT22;21301;43.626;10.580;2023-02-22T04:36:31;11.20;99.90
35129;DHT22;21301;43.626;10.580;2023-02-22T04:38:59;11.10;99.90
35129;DHT22;21301;43.626;10.580;2023-02-22T04:41:27;11.10;99.90
35129;DHT22;21301;43.626;10.580;2023-02-22T04:43:53;11.10;99.90
35129;DHT22;21301;43.626;10.580;2023-02-22T04:46:21;11.10;99.90
35129;DHT22;21301;43.626;10.580;2023-02-22T04:48:47;11.20;99.90
35129;DHT22;21301;43.626;10.580;2023-02-22T04:51:15;11.20;99.90
35129;DHT22;21301;43.626;10.580;2023-02-22T04:53:52;11.10;99.90
35129;DHT22;21301;43.626;10.580;2023-02-22T04:56:18;11.00;99.90
35129;DHT22;21301;43.626;10.580;2023-02-22T04:58:45;11.00;99.90
35129;DHT22;21301;43.626;10.580;2023-02-22T05:01:13;11.10;99.90
35129;DHT22;21301;43.626;10.580;2023-02-22T05:03:39;11.20;99.90
35129;DHT22;21301;43.626;10.580;2023-02-22T05:06:05;11.20;99.90
35129;DHT22;21301;43.626;10.580;2023-02-22T05:08:31;11.20;99.90
35129;DHT22;21301;43.626;10.580;2023-02-22T05:10:57;11.30;99.90
35129;DHT22;21301;43.626;10.580;2023-02-22T05:13:23;11.30;99.90
35129;DHT22;21301;43.626;10.580;2023-02-22T05:15:49;11.20;99.90
35129;DHT22;21301;43.626;10.580;2023-02-22T05:18:15;11.10;99.90
35129;DHT22;21301;43.626;10.580;2023-02-22T05:20:40;11.10;99.90
35129;DHT22;21301;43.626;10.580;2023-02-22T05:23:06;11.10;99.90
35129;DHT22;21301;43.626;10.580;2023-02-22T05:25:32;11.10;99.90
35129;DHT22;21301;43.626;10.580;2023-02-22T05:28:01;10.90;99.90
35129;DHT22;21301;43.626;10.580;2023-02-22T05:30:30;11.10;99.90
35129;DHT22;21301;43.626;10.580;2023-02-22T05:32:57;11.10;99.90
35129;DHT22;21301;43.626;10.580;2023-02-22T05:35:24;11.20;99.90
35129;DHT22;21301;43.626;10.580;2023-02-22T05:37:50;11.30;99.90
35129;DHT22;21301;43.626;10.580;2023-02-22T05:40:21;11.20;99.90
35129;DHT22;21301;43.626;10.580;2023-02-22T05:42:49;11.30;99.90
35129;DHT22;21301;43.626;10.580;2023-02-22T05:45:17;11.30;99.90
35129;DHT22;21301;43.626;10.580;2023-02-22T05:47:44;11.30;99.90
35129;DHT22;21301;43.626;10.580;2023-02-22T05:50:11;11.20;99.90
35129;DHT22;21301;43.626;10.580;2023-02-22T05:52:37;11.20;99.90
35129;DHT22;21301;43.626;10.580;2023-02-22T05:55:04;11.10;99.90
35129;DHT22;21301;43.626;10.580;2023-02-22T05:57:31;11.10;99.90
35129;DHT22;21301;43.626;10.580;2023-02-22T05:59:56;11.20;99.90
35129;DHT22;21301;43.626;10.580;2023-02-22T06:02:22;11.30;99.90
35129;DHT22;21301;43.626;10.580;2023-02-22T06:04:48;11.30;99.90
35129;DHT22;21301;43.626;10.580;2023-02-22T06:07:14;11.20;99.90
35129;DHT22;21301;43.626;10.580;2023-02-22T06:09:40;11.20;99.90
35129;DHT22;21301;43.626;10.580;2023-02-22T06:12:07;11.20;99.90
35129;DHT22;21301;43.626;10.580;2023-02-22T06:14:33;11.10;99.90
35129;DHT22;21301;43.626;10.580;2023-02-22T06:16:59;11.20;99.90
35129;DHT22;21301;43.626;10.580;2023-02-22T06:19:25;11.20;99.90
35129;DHT22;21301;43.626;10.580;2023-02-22T06:21:56;11.10;99.90
35129;DHT22;21301;43.626;10.580;2023-02-22T06:24:25;11.10;99.90
35129;DHT22;21301;43.626;10.580;2023-02-22T06:26:59;11.10;99.90
35129;DHT22;21301;43.626;10.580;2023-02-22T06:29:27;11.10;99.90
35129;DHT22;21301;43.626;10.580;2023-02-22T06:31:53;11.10;99.90
35129;DHT22;21301;43.626;10.580;2023-02-22T06:34:20;11.10;99.90
35129;DHT22;21301;43.626;10.580;2023-02-22T06:36:49;11.00;99.90
35129;DHT22;21301;43.626;10.580;2023-02-22T06:39:15;10.90;99.90
35129;DHT22;21301;43.626;10.580;2023-02-22T06:41:42;11.00;99.90
35129;DHT22;21301;43.626;10.580;2023-02-22T06:44:09;10.90;99.90
35129;DHT22;21301;43.626;10.580;2023-02-22T06:46:36;10.90;99.90
35129;DHT22;21301;43.626;10.580;2023-02-22T06:49:02;11.00;99.90
35129;DHT22;21301;43.626;10.580;2023-02-22T06:51:28;11.00;99.90
35129;DHT22;21301;43.626;10.580;2023-02-22T06:53:55;11.00;99.90
35129;DHT22;21301;43.626;10.580;2023-02-22T06:56:21;11.00;99.90
35129;DHT22;21301;43.626;10.580;2023-02-22T06:58:47;11.00;99.90
35129;DHT22;21301;43.626;10.580;2023-02-22T07:01:14;11.00;99.90
35129;DHT22;21301;43.626;10.580;2023-02-22T07:03:40;11.00;99.90
35129;DHT22;21301;43.626;10.580;2023-02-22T07:06:07;11.00;99.90
35129;DHT22;21301;43.626;10.580;2023-02-22T07:08:33;11.10;99.90
35129;DHT22;21301;43.626;10.580;2023-02-22T07:10:59;11.10;99.90
35129;DHT22;21301;43.626;10.580;2023-02-22T07:13:24;11.10;99.90
35129;DHT22;21301;43.626;10.580;2023-02-22T07:15:50;11.10;99.90
35129;DHT22;21301;43.626;10.580;2023-02-22T07:18:16;11.20;99.90
35129;DHT22;21301;43.626;10.580;2023-02-22T07:20:42;11.10;99.90
35129;DHT22;21301;43.626;10.580;2023-02-22T07:23:08;11.20;99.90
35129;DHT22;21301;43.626;10.580;2023-02-22T07:25:34;11.20;99.90
35129;DHT22;21301;43.626;10.580;2023-02-22T07:28:00;11.20;99.90
35129;DHT22;21301;43.626;10.580;2023-02-22T07:30:28;11.20;99.90
35129;DHT22;21301;43.626;10.580;2023-02-22T07:33:03;11.20;99.90
35129;DHT22;21301;43.626;10.580;2023-02-22T07:35:32;11.20;99.90
35129;DHT22;21301;43.626;10.580;2023-02-22T07:37:58;11.20;99.90
35129;DHT22;21301;43.626;10.580;2023-02-22T07:40:26;11.20;99.90
35129;DHT22;21301;43.626;10.580;2023-02-22T07:43:00;11.20;99.90
35129;DHT22;21301;43.626;10.580;2023-02-22T07:45:29;11.30;99.90
35129;DHT22;21301;43.626;10.580;2023-02-22T07:47:55;11.30;99.90
35129;DHT22;21301;43.626;10.580;2023-02-22T07:50:22;11.40;99.90
35129;DHT22;21301;43.626;10.580;2023-02-22T07:52:51;11.40;99.90
35129;DHT22;21301;43.626;10.580;2023-02-22T07:55:19;11.50;99.90
35129;DHT22;21301;43.626;10.580;2023-02-22T07:57:47;11.50;99.90
35129;DHT22;21301;43.626;10.580;2023-02-22T08:00:15;11.60;99.90
35129;DHT22;21301;43.626;10.580;2023-02-22T08:02:42;11.70;99.90
35129;DHT22;21301;43.626;10.580;2023-02-22T08:05:09;11.70;99.90
35129;DHT22;21301;43.626;10.580;2023-02-22T08:07:36;11.80;99.90
35129;DHT22;21301;43.626;10.580;2023-02-22T08:10:03;11.80;99.90
35129;DHT22;21301;43.626;10.580;2023-02-22T08:12:35;11.80;99.90
35129;DHT22;21301;43.626;10.580;2023-02-22T08:15:05;11.80;99.90
35129;DHT22;21301;43.626;10.580;2023-02-22T08:17:31;11.90;99.90
35129;DHT22;21301;43.626;10.580;2023-02-22T08:19:57;12.00;99.90
35129;DHT22;21301;43.626;10.580;2023-02-22T08:22:23;12.10;99.90
35129;DHT22;21301;43.626;10.580;2023-02-22T08:24:49;12.10;99.90
35129;DHT22;21301;43.626;10.580;2023-02-22T08:27:27;12.20;99.90
35129;DHT22;21301;43.626;10.580;2023-02-22T08:29:54;12.20;99.90
35129;DHT22;21301;43.626;10.580;2023-02-22T08:32:20;12.20;99.90
35129;DHT22;21301;43.626;10.580;2023-02-22T08:34:46;12.20;99.90
35129;DHT22;21301;43.626;10.580;2023-02-22T08:37:13;12.30;99.90
35129;DHT22;21301;43.626;10.580;2023-02-22T08:39:39;12.20;99.90
35129;DHT22;21301;43.626;10.580;2023-02-22T08:42:05;12.30;99.90
35129;DHT22;21301;43.626;10.580;2023-02-22T08:44:33;12.40;99.90
35129;DHT22;21301;43.626;10.580;2023-02-22T08:46:59;12.50;99.90
35129;DHT22;21301;43.626;10.580;2023-02-22T08:49:25;12.50;99.90
35129;DHT22;21301;43.626;10.580;2023-02-22T08:51:51;12.60;99.90
35129;DHT22;21301;43.626;10.580;2023-02-22T08:54:16;12.60;99.90
35129;DHT22;21301;43.626;10.580;2023-02-22T08:56:43;12.60;99.90
35129;DHT22;21301;43.626;10.580;2023-02-22T08:59:09;12.60;99.90
35129;DHT22;21301;43.626;10.580;2023-02-22T09:01:35;12.60;99.90
35129;DHT22;21301;43.626;10.580;2023-02-22T09:04:01;12.60;99.90
35129;DHT22;21301;43.626;10.580;2023-02-22T09:06:28;12.60;99.90
35129;DHT22;21301;43.626;10.580;2023-02-22T09:08:54;12.60;99.90
35129;DHT22;21301;43.626;10.580;2023-02-22T09:11:23;12.70;99.90
35129;DHT22;21301;43.626;10.580;2023-02-22T09:13:48;12.90;99.90
35129;DHT22;21301;43.626;10.580;2023-02-22T09:16:14;13.00;99.90
35129;DHT22;21301;43.626;10.580;2023-02-22T09:18:41;13.00;99.90
35129;DHT22;21301;43.626;10.580;2023-02-22T09:21:06;13.00;99.90
35129;DHT22;21301;43.626;10.580;2023-02-22T09:23:32;13.10;99.90
35129;DHT22;21301;43.626;10.580;2023-02-22T09:25:59;13.10;99.90
35129;DHT22;21301;43.626;10.580;2023-02-22T09:28:28;13.20;99.90
35129;DHT22;21301;43.626;10.580;2023-02-22T09:30:54;13.20;99.90
35129;DHT22;21301;43.626;10.580;2023-02-22T09:33:21;13.30;99.90
35129;DHT22;21301;43.626;10.580;2023-02-22T09:35:48;13.30;99.90
35129;DHT22;21301;43.626;10.580;2023-02-22T09:38:22;13.30;99.90
35129;DHT22;21301;43.626;10.580;2023-02-22T09:40:52;13.50;99.90
35129;DHT22;21301;43.626;10.580;2023-02-22T09:48:44;13.70;99.90
35129;DHT22;21301;43.626;10.580;2023-02-22T09:51:16;13.80;99.90
35129;DHT22;21301;43.626;10.580;2023-02-22T09:53:45;13.90;99.90
35129;DHT22;21301;43.626;10.580;2023-02-22T09:56:13;14.10;99.90
35129;DHT22;21301;43.626;10.580;2023-02-22T09:58:46;14.00;99.90
35129;DHT22;21301;43.626;10.580;2023-02-22T10:07:00;14.20;99.90
35129;DHT22;21301;43.626;10.580;2023-02-22T10:09:33;14.30;99.90
35129;DHT22;21301;43.626;10.580;2023-02-22T10:12:28;14.40;99.90
35129;DHT22;21301;43.626;10.580;2023-02-22T10:23:25;14.80;99.90
35129;DHT22;21301;43.626;10.580;2023-02-22T10:26:00;14.80;99.90
35129;DHT22;21301;43.626;10.580;2023-02-22T10:28:36;14.80;99.90
35129;DHT22;21301;43.626;10.580;2023-02-22T10:31:07;14.80;99.90
35129;DHT22;21301;43.626;10.580;2023-02-22T10:33:47;14.90;99.90
35129;DHT22;21301;43.626;10.580;2023-02-22T10:36:19;14.70;99.90
35129;DHT22;21301;43.626;10.580;2023-02-22T10:38:54;14.90;99.90
35129;DHT22;21301;43.626;10.580;2023-02-22T10:41:29;14.90;99.90
35129;DHT22;21301;43.626;10.580;2023-02-22T10:43:56;14.70;99.90
35129;DHT22;21301;43.626;10.580;2023-02-22T10:46:23;14.70;99.90
35129;DHT22;21301;43.626;10.580;2023-02-22T10:48:51;14.90;99.90
35129;DHT22;21301;43.626;10.580;2023-02-22T10:51:19;15.00;99.90
35129;DHT22;21301;43.626;10.580;2023-02-22T10:56:52;14.90;99.90
35129;DHT22;21301;43.626;10.580;2023-02-22T11:01:58;14.80;99.90
35129;DHT22;21301;43.626;10.580;2023-02-22T11:04:24;14.50;99.90
35129;DHT22;21301;43.626;10.580;2023-02-22T11:09:25;14.60;99.90
35129;DHT22;21301;43.626;10.580;2023-02-22T11:12:14;14.80;99.90
35129;DHT22;21301;43.626;10.580;2023-02-22T11:14:41;14.80;99.90
35129;DHT22;21301;43.626;10.580;2023-02-22T11:17:07;14.90;99.90
35129;DHT22;21301;43.626;10.580;2023-02-22T11:19:35;15.00;99.90
35129;DHT22;21301;43.626;10.580;2023-02-22T11:22:12;15.10;99.90
35129;DHT22;21301;43.626;10.580;2023-02-22T11:24:51;15.00;99.90
35129;DHT22;21301;43.626;10.580;2023-02-22T11:29:48;15.20;99.90
35129;DHT22;21301;43.626;10.580;2023-02-22T11:32:18;15.00;99.90
35129;DHT22;21301;43.626;10.580;2023-02-22T11:34:47;15.00;99.90
35129;DHT22;21301;43.626;10.580;2023-02-22T11:37:33;15.10;99.90
35129;DHT22;21301;43.626;10.580;2023-02-22T11:40:05;15.10;99.90
35129;DHT22;21301;43.626;10.580;2023-02-22T11:42:31;15.20;99.90
35129;DHT22;21301;43.626;10.580;2023-02-22T11:45:24;15.10;99.90
35129;DHT22;21301;43.626;10.580;2023-02-22T11:47:54;15.00;99.90
35129;DHT22;21301;43.626;10.580;2023-02-22T11:52:50;14.90;99.90
35129;DHT22;21301;43.626;10.580;2023-02-22T11:55:35;15.00;99.90
35129;DHT22;21301;43.626;10.580;2023-02-22T11:58:34;14.70;99.90
35129;DHT22;21301;43.626;10.580;2023-02-22T12:09:08;14.70;99.90
35129;DHT22;21301;43.626;10.580;2023-02-22T12:14:25;14.60;99.90
35129;DHT22;21301;43.626;10.580;2023-02-22T12:20:16;14.60;99.90
35129;DHT22;21301;43.626;10.580;2023-02-22T12:23:22;14.60;99.90
35129;DHT22;21301;43.626;10.580;2023-02-22T12:28:37;14.60;99.90
35129;DHT22;21301;43.626;10.580;2023-02-22T12:31:20;14.40;99.90
35129;DHT22;21301;43.626;10.580;2023-02-22T12:36:24;14.20;99.90
35129;DHT22;21301;43.626;10.580;2023-02-22T12:38:59;14.20;99.90
35129;DHT22;21301;43.626;10.580;2023-02-22T12:41:41;14.20;99.90
35129;DHT22;21301;43.626;10.580;2023-02-22T12:44:32;14.20;99.90
35129;DHT22;21301;43.626;10.580;2023-02-22T12:46:59;14.10;99.90
35129;DHT22;21301;43.626;10.580;2023-02-22T12:52:03;14.60;99.90
35129;DHT22;21301;43.626;10.580;2023-02-22T12:54:46;14.70;99.90
35129;DHT22;21301;43.626;10.580;2023-02-22T12:57:33;14.80;99.90
35129;DHT22;21301;43.626;10.580;2023-02-22T13:00:15;14.50;99.90
35129;DHT22;21301;43.626;10.580;2023-02-22T13:05:33;14.30;99.90
35129;DHT22;21301;43.626;10.580;2023-02-22T13:10:56;14.30;99.90
35129;DHT22;21301;43.626;10.580;2023-02-22T13:13:48;14.30;99.90
35129;DHT22;21301;43.626;10.580;2023-02-22T13:22:51;14.70;99.90
35129;DHT22;21301;43.626;10.580;2023-02-22T13:25:14;14.80;99.90
35129;DHT22;21301;43.626;10.580;2023-02-22T13:27:50;14.80;99.90
35129;DHT22;21301;43.626;10.580;2023-02-22T13:30:23;14.60;99.90
35129;DHT22;21301;43.626;10.580;2023-02-22T13:36:37;14.70;99.90
35129;DHT22;21301;43.626;10.580;2023-02-22T13:39:30;14.50;99.90
35129;DHT22;21301;43.626;10.580;2023-02-22T13:52:27;14.50;99.90
35129;DHT22;21301;43.626;10.580;2023-02-22T13:54:58;14.60;99.90
35129;DHT22;21301;43.626;10.580;2023-02-22T13:57:29;14.50;99.90
35129;DHT22;21301;43.626;10.580;2023-02-22T14:05:36;14.10;99.90
35129;DHT22;21301;43.626;10.580;2023-02-22T14:11:00;14.20;99.90
35129;DHT22;21301;43.626;10.580;2023-02-22T14:16:24;14.10;99.90
35129;DHT22;21301;43.626;10.580;2023-02-22T14:21:27;14.20;99.90
35129;DHT22;21301;43.626;10.580;2023-02-22T14:23:55;14.20;99.90
35129;DHT22;21301;43.626;10.580;2023-02-22T14:26:35;14.20;99.90
35129;DHT22;21301;43.626;10.580;2023-02-22T14:32:06;14.20;99.90
35129;DHT22;21301;43.626;10.580;2023-02-22T14:37:20;14.10;99.90
35129;DHT22;21301;43.626;10.580;2023-02-22T14:40:07;14.20;99.90
35129;DHT22;21301;43.626;10.580;2023-02-22T14:42:57;14.30;99.90
35129;DHT22;21301;43.626;10.580;2023-02-22T14:45:28;14.60;99.90
35129;DHT22;21301;43.626;10.580;2023-02-22T14:56:00;15.60;99.90
35129;DHT22;21301;43.626;10.580;2023-02-22T15:01:28;15.90;99.90
35129;DHT22;21301;43.626;10.580;2023-02-22T15:04:20;15.60;99.90
35129;DHT22;21301;43.626;10.580;2023-02-22T15:06:47;15.30;99.90
35129;DHT22;21301;43.626;10.580;2023-02-22T15:09:18;14.90;99.90
35129;DHT22;21301;43.626;10.580;2023-02-22T15:14:30;15.00;99.90
35129;DHT22;21301;43.626;10.580;2023-02-22T15:17:04;14.90;99.90
35129;DHT22;21301;43.626;10.580;2023-02-22T15:19:36;14.90;99.90
35129;DHT22;21301;43.626;10.580;2023-02-22T15:22:03;15.00;99.90
35129;DHT22;21301;43.626;10.580;2023-02-22T15:24:35;14.70;99.90
35129;DHT22;21301;43.626;10.580;2023-02-22T15:27:05;14.40;99.90
35129;DHT22;21301;43.626;10.580;2023-02-22T15:29:36;14.40;99.90
35129;DHT22;21301;43.626;10.580;2023-02-22T15:32:31;14.30;99.90
35129;DHT22;21301;43.626;10.580;2023-02-22T15:37:45;14.30;99.90
35129;DHT22;21301;43.626;10.580;2023-02-22T15:40:17;14.30;99.90
35129;DHT22;21301;43.626;10.580;2023-02-22T15:42:48;14.30;99.90
35129;DHT22;21301;43.626;10.580;2023-02-22T15:45:20;14.40;99.90
35129;DHT22;21301;43.626;10.580;2023-02-22T15:47:50;14.50;99.90
35129;DHT22;21301;43.626;10.580;2023-02-22T15:50:26;14.60;99.90
35129;DHT22;21301;43.626;10.580;2023-02-22T15:57:58;14.80;99.90
35129;DHT22;21301;43.626;10.580;2023-02-22T16:00:31;14.70;99.90
35129;DHT22;21301;43.626;10.580;2023-02-22T16:03:05;14.80;99.90
35129;DHT22;21301;43.626;10.580;2023-02-22T16:05:47;14.80;99.90
35129;DHT22;21301;43.626;10.580;2023-02-22T16:13:26;14.80;99.90
35129;DHT22;21301;43.626;10.580;2023-02-22T16:16:01;14.90;99.90
35129;DHT22;21301;43.626;10.580;2023-02-22T16:18:36;14.80;99.90
35129;DHT22;21301;43.626;10.580;2023-02-22T16:21:09;14.80;99.90
35129;DHT22;21301;43.626;10.580;2023-02-22T16:23:55;14.70;99.90
35129;DHT22;21301;43.626;10.580;2023-02-22T16:28:57;14.60;99.90
35129;DHT22;21301;43.626;10.580;2023-02-22T16:31:26;14.50;99.90
35129;DHT22;21301;43.626;10.580;2023-02-22T16:33:52;14.40;99.90
35129;DHT22;21301;43.626;10.580;2023-02-22T16:36:24;14.40;99.90
35129;DHT22;21301;43.626;10.580;2023-02-22T16:39:01;14.40;99.90
35129;DHT22;21301;43.626;10.580;2023-02-22T16:41:26;14.30;99.90
35129;DHT22;21301;43.626;10.580;2023-02-22T16:43:53;14.30;99.90
35129;DHT22;21301;43.626;10.580;2023-02-22T16:46:18;14.50;99.90
35129;DHT22;21301;43.626;10.580;2023-02-22T16:48:45;14.60;99.90
35129;DHT22;21301;43.626;10.580;2023-02-22T16:51:22;14.60;99.90
35129;DHT22;21301;43.626;10.580;2023-02-22T16:53:49;14.70;99.90
35129;DHT22;21301;43.626;10.580;2023-02-22T16:56:17;14.70;99.90
35129;DHT22;21301;43.626;10.580;2023-02-22T16:58:45;14.70;99.90
35129;DHT22;21301;43.626;10.580;2023-02-22T17:01:15;14.50;99.90
35129;DHT22;21301;43.626;10.580;2023-02-22T17:03:41;14.40;99.90
35129;DHT22;21301;43.626;10.580;2023-02-22T17:06:07;14.10;99.90
35129;DHT22;21301;43.626;10.580;2023-02-22T17:08:39;13.90;99.90
35129;DHT22;21301;43.626;10.580;2023-02-22T17:11:06;13.80;99.90
35129;DHT22;21301;43.626;10.580;2023-02-22T17:13:32;13.80;99.90
35129;DHT22;21301;43.626;10.580;2023-02-22T17:16:00;13.90;99.90
35129;DHT22;21301;43.626;10.580;2023-02-22T17:18:27;14.00;99.90
35129;DHT22;21301;43.626;10.580;2023-02-22T17:20:59;13.80;99.90
35129;DHT22;21301;43.626;10.580;2023-02-22T17:23:25;13.70;99.90
35129;DHT22;21301;43.626;10.580;2023-02-22T17:26:02;13.60;99.90
35129;DHT22;21301;43.626;10.580;2023-02-22T17:28:28;13.70;99.90
35129;DHT22;21301;43.626;10.580;2023-02-22T17:30:56;13.80;99.90
35129;DHT22;21301;43.626;10.580;2023-02-22T17:33:29;13.70;99.90
35129;DHT22;21301;43.626;10.580;2023-02-22T17:35:57;13.60;99.90
35129;DHT22;21301;43.626;10.580;2023-02-22T17:38:23;13.40;99.90
35129;DHT22;21301;43.626;10.580;2023-02-22T17:40:51;13.20;99.90
35129;DHT22;21301;43.626;10.580;2023-02-22T17:43:19;13.00;99.90
35129;DHT22;21301;43.626;10.580;2023-02-22T17:45:46;12.90;99.90
35129;DHT22;21301;43.626;10.580;2023-02-22T17:48:14;12.70;99.90
35129;DHT22;21301;43.626;10.580;2023-02-22T17:50:41;12.80;99.90
35129;DHT22;21301;43.626;10.580;2023-02-22T17:53:08;12.90;99.90
35129;DHT22;21301;43.626;10.580;2023-02-22T17:55:38;13.00;99.90
35129;DHT22;21301;43.626;10.580;2023-02-22T17:58:06;13.00;99.90
35129;DHT22;21301;43.626;10.580;2023-02-22T18:00:35;12.90;99.90
35129;DHT22;21301;43.626;10.580;2023-02-22T18:03:07;12.80;99.90
35129;DHT22;21301;43.626;10.580;2023-02-22T18:05:39;12.70;99.90
35129;DHT22;21301;43.626;10.580;2023-02-22T18:08:06;12.80;99.90
35129;DHT22;21301;43.626;10.580;2023-02-22T18:10:32;12.90;99.90
35129;DHT22;21301;43.626;10.580;2023-02-22T18:12:58;13.00;99.90